sensor_id;sensor_type;location;lat;lon;timestamp;P1;durP1;ratioP1;P2;durP2;ratioP2
63664;SDS011;49820;33.966;73.390;2022-12-10T05:13:10;5.90;;;3.95;;
63664;SDS011;49820;33.966;73.390;2022-12-10T05:15:39;3.92;;;3.05;;
63664;SDS011;49820;33.966;73.390;2022-12-10T05:18:08;6.22;;;3.50;;
63664;SDS011;49820;33.966;73.390;2022-12-10T05:20:37;6.40;;;3.70;;
63664;SDS011;49820;33.966;73.390;2022-12-10T05:23:07;6.03;;;3.90;;
63664;SDS011;49820;33.966;73.390;2022-12-10T05:25:59;6.40;;;4.00;;
63664;SDS011;49820;33.966;73.390;2022-12-10T05:28:38;6.55;;;3.95;;
63664;SDS011;49820;33.966;73.390;2022-12-10T05:31:12;7.20;;;4.88;;
63664;SDS011;49820;33.966;73.390;2022-12-10T05:33:52;5.30;;;3.47;;
63664;SDS011;49820;33.966;73.390;2022-12-10T05:36:23;4.53;;;3.10;;
63664;SDS011;49820;33.966;73.390;2022-12-10T05:38:55;6.38;;;3.63;;
63664;SDS011;49820;33.966;73.390;2022-12-10T05:41:27;4.78;;;3.33;;
63664;SDS011;49820;33.966;73.390;2022-12-10T05:43:58;5.80;;;3.80;;
63664;SDS011;49820;33.966;73.390;2022-12-10T05:46:28;5.65;;;3.83;;
63664;SDS011;49820;33.966;73.390;2022-12-10T05:48:59;6.27;;;4.07;;
63664;SDS011;49820;33.966;73.390;2022-12-10T05:51:32;6.45;;;4.35;;
63664;SDS011;49820;33.966;73.390;2022-12-10T05:54:03;6.53;;;4.95;;
63664;SDS011;49820;33.966;73.390;2022-12-10T05:56:34;8.73;;;5.10;;
63664;SDS011;49820;33.966;73.390;2022-12-10T05:59:05;7.40;;;5.20;;
63664;SDS011;49820;33.966;73.390;2022-12-10T06:01:42;8.00;;;5.32;;
63664;SDS011;49820;33.966;73.390;2022-12-10T06:04:11;7.15;;;4.72;;
63664;SDS011;49820;33.966;73.390;2022-12-10T06:06:41;7.28;;;4.63;;
63664;SDS011;49820;33.966;73.390;2022-12-10T06:09:11;6.60;;;4.40;;
63664;SDS011;49820;33.966;73.390;2022-12-10T06:11:41;7.05;;;4.68;;
63664;SDS011;49820;33.966;73.390;2022-12-10T06:14:10;6.57;;;4.22;;
63664;SDS011;49820;33.966;73.390;2022-12-10T06:16:39;7.00;;;4.57;;
63664;SDS011;49820;33.966;73.390;2022-12-10T06:19:09;6.00;;;4.47;;
63664;SDS011;49820;33.966;73.390;2022-12-10T06:21:39;5.85;;;4.15;;
63664;SDS011;49820;33.966;73.390;2022-12-10T06:24:08;6.18;;;4.60;;
63664;SDS011;49820;33.966;73.390;2022-12-10T06:26:37;7.78;;;5.00;;
63664;SDS011;49820;33.966;73.390;2022-12-10T06:29:06;6.32;;;4.47;;
63664;SDS011;49820;33.966;73.390;2022-12-10T06:31:37;7.25;;;4.55;;
63664;SDS011;49820;33.966;73.390;2022-12-10T06:34:05;6.03;;;4.40;;
63664;SDS011;49820;33.966;73.390;2022-12-10T06:36:35;7.63;;;5.45;;
63664;SDS011;49820;33.966;73.390;2022-12-10T06:39:04;8.73;;;5.78;;
63664;SDS011;49820;33.966;73.390;2022-12-10T06:41:33;8.32;;;5.53;;
63664;SDS011;49820;33.966;73.390;2022-12-10T06:44:06;12.05;;;7.60;;
63664;SDS011;49820;33.966;73.390;2022-12-10T06:46:35;11.23;;;7.65;;
63664;SDS011;49820;33.966;73.390;2022-12-10T06:49:05;14.15;;;9.23;;
63664;SDS011;49820;33.966;73.390;2022-12-10T06:51:35;11.50;;;8.50;;
63664;SDS011;49820;33.966;73.390;2022-12-10T06:54:06;12.35;;;9.00;;
63664;SDS011;49820;33.966;73.390;2022-12-10T06:56:35;10.68;;;8.07;;
63664;SDS011;49820;33.966;73.390;2022-12-10T06:59:04;10.50;;;7.90;;
63664;SDS011;49820;33.966;73.390;2022-12-10T07:01:37;11.52;;;7.13;;
63664;SDS011;49820;33.966;73.390;2022-12-10T07:04:10;10.80;;;7.60;;
63664;SDS011;49820;33.966;73.390;2022-12-10T07:06:39;10.48;;;7.40;;
63664;SDS011;49820;33.966;73.390;2022-12-10T07:09:08;9.60;;;6.70;;
63664;SDS011;49820;33.966;73.390;2022-12-10T07:11:40;9.70;;;6.87;;
63664;SDS011;49820;33.966;73.390;2022-12-10T07:14:13;9.75;;;6.90;;
63664;SDS011;49820;33.966;73.390;2022-12-10T07:16:44;10.60;;;7.30;;
63664;SDS011;49820;33.966;73.390;2022-12-10T07:19:12;8.75;;;6.68;;
63664;SDS011;49820;33.966;73.390;2022-12-10T07:21:42;10.10;;;6.53;;
63664;SDS011;49820;33.966;73.390;2022-12-10T07:24:13;10.73;;;7.20;;
63664;SDS011;49820;33.966;73.390;2022-12-10T07:26:44;10.93;;;7.50;;
63664;SDS011;49820;33.966;73.390;2022-12-10T07:29:15;12.02;;;8.07;;
63664;SDS011;49820;33.966;73.390;2022-12-10T07:31:47;10.02;;;7.15;;
63664;SDS011;49820;33.966;73.390;2022-12-10T07:34:16;10.57;;;6.80;;
63664;SDS011;49820;33.966;73.390;2022-12-10T07:36:45;9.38;;;6.68;;
63664;SDS011;49820;33.966;73.390;2022-12-10T07:39:15;8.23;;;5.75;;
63664;SDS011;49820;33.966;73.390;2022-12-10T07:41:48;7.73;;;5.37;;
63664;SDS011;49820;33.966;73.390;2022-12-10T07:44:20;9.90;;;6.07;;
63664;SDS011;49820;33.966;73.390;2022-12-10T07:46:53;9.20;;;6.40;;
63664;SDS011;49820;33.966;73.390;2022-12-10T07:49:23;7.97;;;5.88;;
63664;SDS011;49820;33.966;73.390;2022-12-10T07:51:52;7.32;;;5.35;;
63664;SDS011;49820;33.966;73.390;2022-12-10T07:54:21;9.98;;;6.13;;
63664;SDS011;49820;33.966;73.390;2022-12-10T07:56:50;9.18;;;6.00;;
63664;SDS011;49820;33.966;73.390;2022-12-10T07:59:19;7.47;;;5.68;;
63664;SDS011;49820;33.966;73.390;2022-12-10T08:01:48;9.93;;;6.53;;
63664;SDS011;49820;33.966;73.390;2022-12-10T08:04:17;9.75;;;6.85;;
63664;SDS011;49820;33.966;73.390;2022-12-10T08:06:46;11.27;;;6.63;;
63664;SDS011;49820;33.966;73.390;2022-12-10T08:09:15;9.73;;;6.32;;
63664;SDS011;49820;33.966;73.390;2022-12-10T08:11:44;10.07;;;6.05;;
63664;SDS011;49820;33.966;73.390;2022-12-10T08:14:14;9.45;;;5.57;;
63664;SDS011;49820;33.966;73.390;2022-12-10T08:16:43;9.35;;;5.82;;
63664;SDS011;49820;33.966;73.390;2022-12-10T08:19:12;10.75;;;6.85;;
63664;SDS011;49820;33.966;73.390;2022-12-10T08:21:48;12.60;;;7.72;;
63664;SDS011;49820;33.966;73.390;2022-12-10T08:24:17;12.87;;;8.60;;
63664;SDS011;49820;33.966;73.390;2022-12-10T08:26:46;18.98;;;12.65;;
63664;SDS011;49820;33.966;73.390;2022-12-10T08:29:14;19.23;;;11.63;;
63664;SDS011;49820;33.966;73.390;2022-12-10T08:31:43;18.38;;;11.23;;
63664;SDS011;49820;33.966;73.390;2022-12-10T08:34:13;17.35;;;12.00;;
63664;SDS011;49820;33.966;73.390;2022-12-10T08:36:45;20.13;;;12.13;;
63664;SDS011;49820;33.966;73.390;2022-12-10T08:39:14;18.52;;;10.80;;
63664;SDS011;49820;33.966;73.390;2022-12-10T08:41:45;18.90;;;11.88;;
63664;SDS011;49820;33.966;73.390;2022-12-10T08:44:14;19.63;;;11.80;;
63664;SDS011;49820;33.966;73.390;2022-12-10T08:46:43;14.65;;;10.18;;
63664;SDS011;49820;33.966;73.390;2022-12-10T08:49:12;17.97;;;10.47;;
63664;SDS011;49820;33.966;73.390;2022-12-10T08:51:43;16.25;;;9.68;;
63664;SDS011;49820;33.966;73.390;2022-12-10T08:54:11;15.05;;;8.35;;
63664;SDS011;49820;33.966;73.390;2022-12-10T08:56:40;12.20;;;7.53;;
63664;SDS011;49820;33.966;73.390;2022-12-10T08:59:10;11.40;;;7.38;;
63664;SDS011;49820;33.966;73.390;2022-12-10T09:01:39;12.48;;;7.65;;
63664;SDS011;49820;33.966;73.390;2022-12-10T09:04:08;12.45;;;7.45;;
63664;SDS011;49820;33.966;73.390;2022-12-10T09:06:37;10.53;;;7.67;;
63664;SDS011;49820;33.966;73.390;2022-12-10T09:09:06;11.57;;;6.70;;
63664;SDS011;49820;33.966;73.390;2022-12-10T09:11:35;10.93;;;6.93;;
63664;SDS011;49820;33.966;73.390;2022-12-10T09:14:05;10.65;;;7.18;;
63664;SDS011;49820;33.966;73.390;2022-12-10T09:16:35;12.88;;;7.20;;
63664;SDS011;49820;33.966;73.390;2022-12-10T09:19:06;11.38;;;7.38;;
63664;SDS011;49820;33.966;73.390;2022-12-10T09:21:35;13.02;;;7.68;;
63664;SDS011;49820;33.966;73.390;2022-12-10T09:24:04;11.15;;;6.88;;
63664;SDS011;49820;33.966;73.390;2022-12-10T09:26:34;13.15;;;7.07;;
63664;SDS011;49820;33.966;73.390;2022-12-10T09:29:03;9.18;;;6.85;;
63664;SDS011;49820;33.966;73.390;2022-12-10T09:31:32;8.80;;;6.27;;
63664;SDS011;49820;33.966;73.390;2022-12-10T09:34:03;10.30;;;6.40;;
63664;SDS011;49820;33.966;73.390;2022-12-10T09:36:34;11.45;;;7.03;;
63664;SDS011;49820;33.966;73.390;2022-12-10T09:39:03;11.57;;;6.32;;
63664;SDS011;49820;33.966;73.390;2022-12-10T09:42:16;11.60;;;6.40;;
63664;SDS011;49820;33.966;73.390;2022-12-10T09:44:54;9.77;;;6.60;;
63664;SDS011;49820;33.966;73.390;2022-12-10T09:48:06;10.85;;;6.40;;
63664;SDS011;49820;33.966;73.390;2022-12-10T09:51:01;7.18;;;4.50;;
63664;SDS011;49820;33.966;73.390;2022-12-10T09:53:42;7.85;;;5.03;;
63664;SDS011;49820;33.966;73.390;2022-12-10T09:56:21;8.63;;;4.07;;
63664;SDS011;49820;33.966;73.390;2022-12-10T09:58:53;7.55;;;4.30;;
63664;SDS011;49820;33.966;73.390;2022-12-10T10:01:24;8.10;;;5.20;;
63664;SDS011;49820;33.966;73.390;2022-12-10T10:03:55;10.80;;;6.43;;
63664;SDS011;49820;33.966;73.390;2022-12-10T10:06:24;8.63;;;5.30;;
63664;SDS011;49820;33.966;73.390;2022-12-10T10:08:57;9.13;;;5.53;;
63664;SDS011;49820;33.966;73.390;2022-12-10T10:11:30;10.50;;;6.10;;
63664;SDS011;49820;33.966;73.390;2022-12-10T10:14:02;9.60;;;5.83;;
63664;SDS011;49820;33.966;73.390;2022-12-10T10:16:48;9.43;;;6.47;;
63664;SDS011;49820;33.966;73.390;2022-12-10T10:19:26;9.30;;;6.78;;
63664;SDS011;49820;33.966;73.390;2022-12-10T10:21:58;15.65;;;11.10;;
63664;SDS011;49820;33.966;73.390;2022-12-10T10:24:33;9.05;;;6.38;;
63664;SDS011;49820;33.966;73.390;2022-12-10T10:27:11;10.63;;;5.65;;
63664;SDS011;49820;33.966;73.390;2022-12-10T10:29:47;10.93;;;6.30;;
63664;SDS011;49820;33.966;73.390;2022-12-10T10:32:26;9.73;;;6.00;;
63664;SDS011;49820;33.966;73.390;2022-12-10T10:35:32;8.68;;;5.70;;
63664;SDS011;49820;33.966;73.390;2022-12-10T10:38:17;8.60;;;6.20;;
63664;SDS011;49820;33.966;73.390;2022-12-10T10:40:53;9.73;;;6.67;;
63664;SDS011;49820;33.966;73.390;2022-12-10T10:43:27;9.75;;;6.40;;
63664;SDS011;49820;33.966;73.390;2022-12-10T10:46:02;11.13;;;6.90;;
63664;SDS011;49820;33.966;73.390;2022-12-10T10:48:35;9.02;;;6.60;;
63664;SDS011;49820;33.966;73.390;2022-12-10T10:51:05;10.82;;;6.65;;
63664;SDS011;49820;33.966;73.390;2022-12-10T10:53:44;9.57;;;6.32;;
63664;SDS011;49820;33.966;73.390;2022-12-10T10:56:17;8.25;;;6.18;;
63664;SDS011;49820;33.966;73.390;2022-12-10T11:01:25;10.23;;;6.90;;
63664;SDS011;49820;33.966;73.390;2022-12-10T11:04:11;9.48;;;6.35;;
63664;SDS011;49820;33.966;73.390;2022-12-10T11:06:43;9.97;;;6.70;;
63664;SDS011;49820;33.966;73.390;2022-12-10T11:09:18;9.40;;;6.65;;
63664;SDS011;49820;33.966;73.390;2022-12-10T11:12:00;11.88;;;6.70;;
63664;SDS011;49820;33.966;73.390;2022-12-10T11:14:39;9.07;;;5.97;;
63664;SDS011;49820;33.966;73.390;2022-12-10T11:19:42;8.55;;;6.50;;
63664;SDS011;49820;33.966;73.390;2022-12-10T11:24:57;9.23;;;5.93;;
63664;SDS011;49820;33.966;73.390;2022-12-10T11:30:26;9.85;;;6.45;;
63664;SDS011;49820;33.966;73.390;2022-12-10T11:36:36;10.95;;;6.95;;
63664;SDS011;49820;33.966;73.390;2022-12-10T11:42:12;11.33;;;7.27;;
63664;SDS011;49820;33.966;73.390;2022-12-10T11:47:43;12.10;;;7.28;;
63664;SDS011;49820;33.966;73.390;2022-12-10T11:50:43;11.43;;;7.72;;
63664;SDS011;49820;33.966;73.390;2022-12-10T11:56:30;11.30;;;7.03;;
63664;SDS011;49820;33.966;73.390;2022-12-10T11:59:14;11.97;;;7.43;;
63664;SDS011;49820;33.966;73.390;2022-12-10T12:10:58;10.32;;;7.10;;
63664;SDS011;49820;33.966;73.390;2022-12-10T12:13:45;10.68;;;6.43;;
63664;SDS011;49820;33.966;73.390;2022-12-10T12:16:51;12.60;;;7.45;;
63664;SDS011;49820;33.966;73.390;2022-12-10T12:19:49;12.50;;;7.35;;
63664;SDS011;49820;33.966;73.390;2022-12-10T12:22:26;10.80;;;6.38;;
63664;SDS011;49820;33.966;73.390;2022-12-10T12:25:44;10.55;;;6.45;;
63664;SDS011;49820;33.966;73.390;2022-12-10T12:28:27;8.70;;;5.97;;
63664;SDS011;49820;33.966;73.390;2022-12-10T12:31:10;8.02;;;5.70;;
63664;SDS011;49820;33.966;73.390;2022-12-10T12:36:19;8.55;;;5.35;;
63664;SDS011;49820;33.966;73.390;2022-12-10T12:38:55;8.07;;;5.68;;
63664;SDS011;49820;33.966;73.390;2022-12-10T12:44:14;8.67;;;5.70;;
63664;SDS011;49820;33.966;73.390;2022-12-10T12:46:47;9.77;;;6.18;;
63664;SDS011;49820;33.966;73.390;2022-12-10T12:49:20;8.65;;;5.53;;
63664;SDS011;49820;33.966;73.390;2022-12-10T12:54:48;10.57;;;6.75;;
63664;SDS011;49820;33.966;73.390;2022-12-10T12:59:54;9.40;;;6.40;;
63664;SDS011;49820;33.966;73.390;2022-12-10T13:02:57;9.82;;;6.20;;
63664;SDS011;49820;33.966;73.390;2022-12-10T13:05:43;9.57;;;6.38;;
63664;SDS011;49820;33.966;73.390;2022-12-10T13:10:52;9.68;;;6.20;;
63664;SDS011;49820;33.966;73.390;2022-12-10T13:21:59;9.05;;;6.22;;
63664;SDS011;49820;33.966;73.390;2022-12-10T13:27:17;9.80;;;6.60;;
63664;SDS011;49820;33.966;73.390;2022-12-10T13:46:54;10.18;;;6.70;;
63664;SDS011;49820;33.966;73.390;2022-12-10T13:49:30;10.55;;;6.93;;
63664;SDS011;49820;33.966;73.390;2022-12-10T13:52:13;12.10;;;6.95;;
63664;SDS011;49820;33.966;73.390;2022-12-10T13:55:12;11.73;;;7.15;;
63664;SDS011;49820;33.966;73.390;2022-12-10T14:00:23;10.60;;;6.70;;
63664;SDS011;49820;33.966;73.390;2022-12-10T14:05:49;10.55;;;7.20;;
63664;SDS011;49820;33.966;73.390;2022-12-10T14:08:41;11.77;;;7.00;;
63664;SDS011;49820;33.966;73.390;2022-12-10T14:11:37;10.70;;;7.18;;
63664;SDS011;49820;33.966;73.390;2022-12-10T14:14:13;10.48;;;6.22;;
63664;SDS011;49820;33.966;73.390;2022-12-10T14:16:51;11.23;;;6.78;;
63664;SDS011;49820;33.966;73.390;2022-12-10T14:19:23;9.57;;;6.17;;
63664;SDS011;49820;33.966;73.390;2022-12-10T14:21:56;10.18;;;6.57;;
63664;SDS011;49820;33.966;73.390;2022-12-10T14:24:26;9.90;;;6.93;;
63664;SDS011;49820;33.966;73.390;2022-12-10T14:27:16;9.98;;;6.82;;
63664;SDS011;49820;33.966;73.390;2022-12-10T14:29:48;10.57;;;6.63;;
63664;SDS011;49820;33.966;73.390;2022-12-10T14:32:20;9.88;;;6.93;;
63664;SDS011;49820;33.966;73.390;2022-12-10T14:34:56;12.30;;;7.13;;
63664;SDS011;49820;33.966;73.390;2022-12-10T14:37:28;8.65;;;5.90;;
63664;SDS011;49820;33.966;73.390;2022-12-10T14:40:03;10.38;;;6.82;;
63664;SDS011;49820;33.966;73.390;2022-12-10T14:42:37;10.20;;;6.90;;
63664;SDS011;49820;33.966;73.390;2022-12-10T14:45:07;12.10;;;7.55;;
63664;SDS011;49820;33.966;73.390;2022-12-10T14:47:42;10.20;;;6.93;;
63664;SDS011;49820;33.966;73.390;2022-12-10T14:50:15;9.80;;;6.72;;
63664;SDS011;49820;33.966;73.390;2022-12-10T14:52:48;10.50;;;6.78;;
63664;SDS011;49820;33.966;73.390;2022-12-10T14:55:21;10.57;;;6.82;;
63664;SDS011;49820;33.966;73.390;2022-12-10T14:57:57;11.45;;;6.68;;
63664;SDS011;49820;33.966;73.390;2022-12-10T15:00:30;9.82;;;6.68;;
63664;SDS011;49820;33.966;73.390;2022-12-10T15:03:06;12.88;;;7.68;;
63664;SDS011;49820;33.966;73.390;2022-12-10T15:05:37;12.20;;;6.85;;
63664;SDS011;49820;33.966;73.390;2022-12-10T15:08:07;10.80;;;6.63;;
63664;SDS011;49820;33.966;73.390;2022-12-10T15:10:48;10.52;;;6.65;;
63664;SDS011;49820;33.966;73.390;2022-12-10T15:13:33;12.55;;;6.85;;
63664;SDS011;49820;33.966;73.390;2022-12-10T15:16:18;11.20;;;6.55;;
63664;SDS011;49820;33.966;73.390;2022-12-10T15:19:52;13.38;;;7.40;;
63664;SDS011;49820;33.966;73.390;2022-12-10T15:22:00;11.55;;;6.90;;
63664;SDS011;49820;33.966;73.390;2022-12-10T15:24:41;11.38;;;7.13;;
63664;SDS011;49820;33.966;73.390;2022-12-10T15:27:21;9.18;;;6.47;;
63664;SDS011;49820;33.966;73.390;2022-12-10T15:29:52;10.55;;;7.05;;
63664;SDS011;49820;33.966;73.390;2022-12-10T15:32:23;9.73;;;6.05;;
63664;SDS011;49820;33.966;73.390;2022-12-10T15:35:01;9.73;;;6.38;;
63664;SDS011;49820;33.966;73.390;2022-12-10T15:37:40;10.30;;;5.80;;
63664;SDS011;49820;33.966;73.390;2022-12-10T15:40:22;8.65;;;5.70;;
63664;SDS011;49820;33.966;73.390;2022-12-10T15:45:57;10.20;;;5.97;;
63664;SDS011;49820;33.966;73.390;2022-12-10T15:48:28;8.47;;;5.30;;
63664;SDS011;49820;33.966;73.390;2022-12-10T15:50:58;7.88;;;5.57;;
63664;SDS011;49820;33.966;73.390;2022-12-10T15:53:28;9.75;;;6.10;;
63664;SDS011;49820;33.966;73.390;2022-12-10T15:56:06;8.88;;;5.88;;
63664;SDS011;49820;33.966;73.390;2022-12-10T15:58:35;9.75;;;6.25;;
63664;SDS011;49820;33.966;73.390;2022-12-10T16:01:04;9.30;;;5.77;;
63664;SDS011;49820;33.966;73.390;2022-12-10T16:03:33;79.03;;;39.10;;
63664;SDS011;49820;33.966;73.390;2022-12-10T16:06:02;64.60;;;34.25;;
63664;SDS011;49820;33.966;73.390;2022-12-10T16:08:30;102.63;;;50.83;;
63664;SDS011;49820;33.966;73.390;2022-12-10T16:11:06;228.27;;;107.13;;
